createdAt,value
2022-09-22T00:29:00.411Z,1015.24
2022-09-22T00:29:40.838Z,1015.22
2022-09-22T00:30:21.332Z,1015.26
2022-09-22T00:31:01.837Z,1015.23
2022-09-22T00:31:42.285Z,1015.26
2022-09-22T00:32:22.741Z,1015.25
2022-09-22T00:33:03.203Z,1015.26
2022-09-22T00:33:43.670Z,1015.29
2022-09-22T00:34:24.168Z,1015.25
2022-09-22T00:35:04.674Z,1015.26
2022-09-22T00:35:45.186Z,1015.23
2022-09-22T00:36:25.743Z,1015.24
2022-09-22T00:37:06.207Z,1015.24
2022-09-22T00:37:46.660Z,1015.25
2022-09-22T00:38:27.110Z,1015.19
2022-09-22T00:39:07.686Z,1015.22
2022-09-22T00:39:48.054Z,1015.26
2022-09-22T00:40:28.550Z,1015.22
2022-09-22T00:41:08.995Z,1015.23
2022-09-22T00:41:49.457Z,1015.23
2022-09-22T00:42:29.914Z,1015.25
2022-09-22T00:43:10.398Z,1015.2
2022-09-22T00:43:50.894Z,1015.24
2022-09-22T00:44:31.398Z,1015.24
2022-09-22T00:45:52.333Z,1015.22
2022-09-22T00:46:32.899Z,1015.24
2022-09-22T00:47:13.278Z,1015.23
2022-09-22T00:47:53.742Z,1015.24
2022-09-22T00:48:34.243Z,1015.25
2022-09-22T00:49:14.697Z,1015.27
2022-09-22T00:49:55.227Z,1015.26
2022-09-22T00:50:35.689Z,1015.27
2022-09-22T00:51:16.178Z,1015.24
2022-09-22T00:51:56.705Z,1015.27
2022-09-22T00:52:37.163Z,1015.26
2022-09-22T00:53:17.647Z,1015.27
2022-09-22T00:53:58.169Z,1015.25
2022-09-22T00:54:38.642Z,1015.29
2022-09-22T00:55:19.145Z,1015.24
2022-09-22T00:55:59.616Z,1015.28
2022-09-22T00:56:40.105Z,1015.26
2022-09-22T00:57:20.616Z,1015.27
2022-09-22T00:58:01.098Z,1015.25
2022-09-22T00:58:41.580Z,1015.26
2022-09-22T00:59:22.027Z,1015.26
2022-09-22T01:00:02.510Z,1015.27
2022-09-22T01:01:23.595Z,1015.26
2022-09-22T01:02:04.015Z,1015.23
2022-09-22T01:02:44.418Z,1015.22
2022-09-22T01:03:29.020Z,1015.25
2022-09-22T01:04:05.342Z,1015.22
2022-09-22T01:04:45.851Z,1015.18
2022-09-22T01:07:44.552Z,1015.19
2022-09-22T01:08:25.167Z,1015.15
2022-09-22T01:09:05.615Z,1015.17
2022-09-22T01:09:46.037Z,1015.12
2022-09-22T01:10:26.534Z,1015.08
2022-09-22T01:11:07.065Z,1015.09
2022-09-22T01:11:47.522Z,1015.09
2022-09-22T01:12:27.983Z,1015.08
2022-09-22T01:13:08.478Z,1015.1
2022-09-22T01:13:48.977Z,1015.12
2022-09-22T01:14:29.515Z,1015.07
2022-09-22T01:15:10.017Z,1015.07
2022-09-22T01:15:50.492Z,1015.05
2022-09-22T01:16:30.939Z,1015.06
2022-09-22T01:17:11.452Z,1015.09
2022-09-22T01:17:51.937Z,1015.08
2022-09-22T01:18:32.439Z,1015.03
2022-09-22T01:19:12.989Z,1015.05
2022-09-22T01:19:53.395Z,1015.04
2022-09-22T01:20:33.886Z,1015.01
2022-09-22T01:21:14.378Z,1015.02
2022-09-22T01:21:54.879Z,1014.98
2022-09-22T01:22:35.338Z,1015.01
2022-09-22T01:23:15.832Z,1014.96
2022-09-22T01:23:56.348Z,1014.99
2022-09-22T01:24:36.801Z,1014.98
2022-09-22T01:25:17.270Z,1014.96
2022-09-22T01:25:57.792Z,1014.93
2022-09-22T01:26:38.265Z,1014.95
2022-09-22T01:27:18.777Z,1014.91
2022-09-22T01:27:59.282Z,1014.93
2022-09-22T01:28:39.769Z,1014.91
2022-09-22T01:29:20.275Z,1014.89
2022-09-22T01:30:00.734Z,1014.9
2022-09-22T01:30:41.231Z,1014.9
2022-09-22T01:31:21.784Z,1014.89
2022-09-22T01:32:02.215Z,1014.92
2022-09-22T01:32:42.684Z,1014.89
2022-09-22T01:33:23.141Z,1014.88
2022-09-22T01:34:03.606Z,1014.91
2022-09-22T01:34:44.078Z,1014.86
2022-09-22T01:35:24.579Z,1014.86
2022-09-22T01:36:05.100Z,1014.88
2022-09-22T01:36:45.600Z,1014.87
2022-09-22T01:37:25.998Z,1014.88
2022-09-22T01:38:06.467Z,1014.89
2022-09-22T01:38:46.941Z,1014.85
2022-09-22T01:39:27.426Z,1014.87
2022-09-22T01:40:07.958Z,1014.9
2022-09-22T01:40:48.461Z,1014.87
2022-09-22T01:41:28.896Z,1014.84
2022-09-22T01:42:09.362Z,1014.86
2022-09-22T01:42:49.846Z,1014.83
2022-09-22T01:43:30.355Z,1014.87
2022-09-22T01:44:10.876Z,1014.89
2022-09-22T01:44:51.380Z,1014.84
2022-09-22T01:45:31.842Z,1014.84
2022-09-22T01:46:12.341Z,1014.86
2022-09-22T01:46:52.894Z,1014.9
2022-09-22T01:47:33.401Z,1014.87
2022-09-22T01:48:13.941Z,1014.87
2022-09-22T01:48:54.430Z,1014.89
2022-09-22T01:49:34.907Z,1014.9
2022-09-22T01:50:15.393Z,1014.88
2022-09-22T01:50:55.856Z,1014.86
2022-09-22T01:51:36.341Z,1014.89
2022-09-22T01:52:16.821Z,1014.89
2022-09-22T01:53:37.826Z,1014.86
2022-09-22T01:54:18.276Z,1014.86
2022-09-22T01:54:58.771Z,1014.91
2022-09-22T01:55:39.266Z,1014.89
2022-09-22T01:56:19.748Z,1014.85
2022-09-22T01:57:00.205Z,1014.87
2022-09-22T01:57:40.658Z,1014.82
2022-09-22T01:58:21.121Z,1014.87
2022-09-22T01:59:01.566Z,1014.83
2022-09-22T01:59:42.078Z,1014.8
2022-09-22T02:00:22.543Z,1014.82
2022-09-22T02:01:03.050Z,1014.84
2022-09-22T02:01:43.643Z,1014.81
2022-09-22T02:02:24.254Z,1014.82
2022-09-22T02:03:44.991Z,1014.75
2022-09-22T02:04:25.513Z,1014.78
2022-09-22T02:05:05.986Z,1014.79
2022-09-22T02:05:46.484Z,1014.76
2022-09-22T02:06:27.014Z,1014.75
2022-09-22T02:07:07.461Z,1014.77
2022-09-22T02:07:47.932Z,1014.74
2022-09-22T02:08:28.405Z,1014.7
2022-09-22T02:09:08.924Z,1014.71
2022-09-22T02:09:49.430Z,1014.71
2022-09-22T02:10:29.885Z,1014.69
2022-09-22T02:11:10.327Z,1014.7
2022-09-22T02:11:50.885Z,1014.69
2022-09-22T02:12:31.321Z,1014.69
2022-09-22T02:13:11.840Z,1014.69
2022-09-22T02:13:52.297Z,1014.64
2022-09-22T02:14:32.825Z,1014.65
2022-09-22T02:15:13.322Z,1014.68
2022-09-22T02:16:34.335Z,1014.65
2022-09-22T02:17:14.851Z,1014.67
2022-09-22T02:17:55.380Z,1014.69
2022-09-22T02:18:35.848Z,1014.69
2022-09-22T02:19:16.302Z,1014.62
2022-09-22T02:19:56.815Z,1014.69
2022-09-22T02:20:37.336Z,1014.68
2022-09-22T02:21:17.769Z,1014.66
2022-09-22T02:21:58.315Z,1014.67
2022-09-22T02:22:38.811Z,1014.68
2022-09-22T02:23:19.296Z,1014.67
2022-09-22T02:23:59.750Z,1014.6
2022-09-22T02:24:40.224Z,1014.64
2022-09-22T02:25:20.732Z,1014.62
2022-09-22T02:26:01.239Z,1014.63
2022-09-22T02:26:41.699Z,1014.6
2022-09-22T02:27:22.166Z,1014.61
2022-09-22T02:28:02.683Z,1014.6
2022-09-22T02:28:43.157Z,1014.6
2022-09-22T02:29:23.612Z,1014.57
2022-09-22T02:30:04.140Z,1014.58
2022-09-22T02:30:54.386Z,1014.62
2022-09-22T02:31:25.213Z,1014.65
2022-09-22T02:32:05.675Z,1014.67
2022-09-22T02:32:46.086Z,1014.68
2022-09-22T02:34:07.056Z,1014.61
2022-09-22T02:34:47.631Z,1014.6
2022-09-22T02:35:28.091Z,1014.64
2022-09-22T02:36:08.589Z,1014.59
2022-09-22T02:36:49.055Z,1014.61
2022-09-22T02:37:29.508Z,1014.6
2022-09-22T02:38:10.026Z,1014.58
2022-09-22T02:38:50.456Z,1014.63
2022-09-22T02:39:30.943Z,1014.62
2022-09-22T02:40:11.506Z,1014.62
2022-09-22T02:40:51.989Z,1014.62
2022-09-22T02:41:32.424Z,1014.62
2022-09-22T02:42:12.883Z,1014.65
2022-09-22T02:42:53.439Z,1014.64
2022-09-22T02:43:33.897Z,1014.61
2022-09-22T02:44:14.335Z,1014.62
2022-09-22T02:44:54.788Z,1014.58
2022-09-22T02:45:35.311Z,1014.53
2022-09-22T02:46:56.278Z,1014.51
2022-09-22T02:47:36.740Z,1014.53
2022-09-22T02:48:17.220Z,1014.49
2022-09-22T02:48:57.703Z,1014.46
2022-09-22T02:49:38.192Z,1014.49
2022-09-22T02:50:18.679Z,1014.48
2022-09-22T02:50:59.211Z,1014.52
2022-09-22T02:51:39.688Z,1014.51
2022-09-22T02:52:20.134Z,1014.51
2022-09-22T02:53:00.634Z,1014.49
2022-09-22T02:53:41.186Z,1014.49
2022-09-22T02:54:21.584Z,1014.48
2022-09-22T02:55:02.074Z,1014.49
2022-09-22T02:55:42.521Z,1014.53
2022-09-22T02:56:23.008Z,1014.54
2022-09-22T02:57:03.506Z,1014.52
2022-09-22T02:57:43.968Z,1014.49
2022-09-22T02:58:24.453Z,1014.49
2022-09-22T02:59:05.359Z,1014.49
2022-09-22T02:59:45.854Z,1014.47
2022-09-22T03:00:26.328Z,1014.5
2022-09-22T03:01:06.911Z,1014.52
2022-09-22T03:01:47.399Z,1014.5
2022-09-22T03:02:27.830Z,1014.45
2022-09-22T03:03:08.329Z,1014.46
2022-09-22T03:03:48.825Z,1014.43
2022-09-22T03:04:29.348Z,1014.45
2022-09-22T03:05:09.859Z,1014.44
2022-09-22T03:05:50.305Z,1014.44
2022-09-22T03:06:30.770Z,1014.43
2022-09-22T03:07:11.850Z,1014.49
2022-09-22T03:07:52.351Z,1014.41
2022-09-22T03:08:32.801Z,1014.42
2022-09-22T03:09:13.339Z,1014.44
2022-09-22T03:09:53.803Z,1014.44
2022-09-22T03:10:34.317Z,1014.44
2022-09-22T03:11:14.824Z,1014.43
2022-09-22T03:11:55.258Z,1014.43
2022-09-22T03:12:35.736Z,1014.43
2022-09-22T03:13:17.329Z,1014.44
2022-09-22T03:13:56.719Z,1014.4
2022-09-22T03:14:37.223Z,1014.44
2022-09-22T03:15:17.709Z,1014.39
2022-09-22T03:15:58.249Z,1014.41
2022-09-22T03:16:38.690Z,1014.41
2022-09-22T03:17:19.196Z,1014.41
2022-09-22T03:17:59.669Z,1014.38
2022-09-22T03:18:40.152Z,1014.38
2022-09-22T03:19:20.684Z,1014.42
2022-09-22T03:20:01.103Z,1014.4
2022-09-22T03:20:41.585Z,1014.4
2022-09-22T03:21:22.123Z,1014.37
2022-09-22T03:22:02.510Z,1014.39
2022-09-22T03:22:42.990Z,1014.36
2022-09-22T03:23:23.470Z,1014.36
2022-09-22T03:24:03.910Z,1014.35
2022-09-22T03:24:44.387Z,1014.35
2022-09-22T03:25:24.878Z,1014.34
2022-09-22T03:26:05.399Z,1014.33
2022-09-22T03:26:45.888Z,1014.32
2022-09-22T03:27:27.007Z,1014.35
2022-09-22T03:28:06.810Z,1014.34
2022-09-22T03:28:47.820Z,1014.34
2022-09-22T03:29:28.351Z,1014.33
2022-09-22T03:30:09.507Z,1014.35
2022-09-22T03:30:49.364Z,1014.34
2022-09-22T03:31:29.813Z,1014.32
2022-09-22T03:32:10.295Z,1014.33
2022-09-22T03:32:50.779Z,1014.35
2022-09-22T03:33:31.252Z,1014.31
2022-09-22T03:34:11.731Z,1014.3
2022-09-22T03:34:52.218Z,1014.31
2022-09-22T03:35:32.728Z,1014.31
2022-09-22T03:36:13.290Z,1014.31
2022-09-22T03:36:53.744Z,1014.27
2022-09-22T03:37:34.219Z,1014.27
2022-09-22T03:38:14.751Z,1014.26
2022-09-22T03:39:35.664Z,1014.27
2022-09-22T03:40:16.178Z,1014.24
2022-09-22T03:40:56.608Z,1014.28
2022-09-22T03:41:37.083Z,1014.27
2022-09-22T03:42:17.610Z,1014.27
2022-09-22T03:42:58.086Z,1014.26
2022-09-22T03:43:38.574Z,1014.29
2022-09-22T03:44:19.066Z,1014.25
2022-09-22T03:44:59.596Z,1014.26
2022-09-22T03:45:40.112Z,1014.22
2022-09-22T03:46:20.689Z,1014.24
2022-09-22T03:47:01.117Z,1014.27
2022-09-22T03:47:41.619Z,1014.3
2022-09-22T03:48:22.111Z,1014.3
2022-09-22T03:49:02.568Z,1014.28
2022-09-22T03:49:43.034Z,1014.27
2022-09-22T03:50:23.554Z,1014.23
2022-09-22T03:51:04.014Z,1014.25
2022-09-22T03:51:44.501Z,1014.26
2022-09-22T03:52:24.981Z,1014.27
2022-09-22T03:53:05.502Z,1014.25
2022-09-22T03:53:45.998Z,1014.22
2022-09-22T03:54:26.534Z,1014.25
2022-09-22T03:55:07.054Z,1014.24
2022-09-22T03:55:47.530Z,1014.23
2022-09-22T03:57:08.511Z,1014.23
2022-09-22T03:57:49.009Z,1014.25
2022-09-22T03:58:29.567Z,1014.24
2022-09-22T03:59:09.996Z,1014.2
2022-09-22T03:59:50.529Z,1014.22
2022-09-22T04:00:31.013Z,1014.22
2022-09-22T04:01:11.625Z,1014.26
2022-09-22T04:01:56.031Z,1014.22
2022-09-22T04:02:32.525Z,1014.21
2022-09-22T04:03:12.949Z,1014.2
2022-09-22T04:03:53.502Z,1014.24
2022-09-22T04:04:33.937Z,1014.21
2022-09-22T04:05:14.459Z,1014.22
2022-09-22T04:05:54.959Z,1014.22
2022-09-22T04:06:35.452Z,1014.21
2022-09-22T04:07:15.885Z,1014.22
2022-09-22T04:07:56.354Z,1014.21
2022-09-22T04:08:36.837Z,1014.2
2022-09-22T04:09:17.310Z,1014.21
2022-09-22T04:09:57.798Z,1014.21
2022-09-22T04:10:38.306Z,1014.22
2022-09-22T04:11:19.185Z,1014.18
2022-09-22T04:14:17.984Z,1014.17
2022-09-22T04:14:58.371Z,1014.14
2022-09-22T04:15:39.731Z,1014.14
2022-09-22T04:16:20.191Z,1014.14
2022-09-22T04:17:00.633Z,1014.12
2022-09-22T04:17:41.084Z,1014.13
2022-09-22T04:18:21.564Z,1014.11
2022-09-22T04:19:02.046Z,1014.07
2022-09-22T04:19:42.567Z,1014.1
2022-09-22T04:20:23.131Z,1014.07
2022-09-22T04:21:03.661Z,1014.06
2022-09-22T04:21:44.290Z,1014.08
2022-09-22T04:22:24.799Z,1014.08
2022-09-22T04:23:05.277Z,1014.08
2022-09-22T04:23:45.734Z,1014.07
2022-09-22T04:24:26.311Z,1014.05
2022-09-22T04:25:06.761Z,1014.13
2022-09-22T04:25:47.276Z,1014.03
2022-09-22T04:26:27.820Z,1014.07
2022-09-22T04:27:19.417Z,1014.1
2022-09-22T04:27:48.931Z,1014.06
2022-09-22T04:28:29.437Z,1014.04
2022-09-22T04:29:09.939Z,1014.07
2022-09-22T04:29:50.414Z,1014.09
2022-09-22T04:30:30.966Z,1014.1
2022-09-22T04:31:11.386Z,1014.08
2022-09-22T04:31:51.836Z,1014.08
2022-09-22T04:32:32.309Z,1014.06
2022-09-22T04:33:12.741Z,1014.11
2022-09-22T04:33:53.232Z,1014.1
2022-09-22T04:34:33.703Z,1014.09
2022-09-22T04:35:14.257Z,1014.1
2022-09-22T04:35:54.683Z,1014.09
2022-09-22T04:36:35.482Z,1014.1
2022-09-22T04:37:15.847Z,1014.09
2022-09-22T04:37:56.346Z,1014.07
2022-09-22T04:38:36.854Z,1014.07
2022-09-22T04:39:20.341Z,1014.09
2022-09-22T04:39:57.786Z,1014.11
2022-09-22T04:40:38.302Z,1014.07
2022-09-22T04:41:18.831Z,1014.11
2022-09-22T04:41:59.331Z,1014.06
2022-09-22T04:42:39.887Z,1014.05
2022-09-22T04:43:20.385Z,1014.09
2022-09-22T04:44:42.355Z,1014.08
2022-09-22T04:45:22.889Z,1014.06
2022-09-22T04:46:03.467Z,1014.05
2022-09-22T04:46:43.838Z,1014.1
2022-09-22T04:47:24.409Z,1014.03
2022-09-22T04:48:04.889Z,1014.06
2022-09-22T04:48:45.445Z,1014.09
2022-09-22T04:49:26.027Z,1014.03
2022-09-22T04:50:06.516Z,1014.06
2022-09-22T04:50:48.174Z,1014.03
2022-09-22T04:52:08.055Z,1014.05
2022-09-22T04:52:48.581Z,1014.02
2022-09-22T04:53:29.000Z,1014.03
2022-09-22T04:54:09.502Z,1014.04
2022-09-22T04:54:50.017Z,1014.05
2022-09-22T04:55:30.460Z,1014.07
2022-09-22T04:56:10.916Z,1014.04
2022-09-22T04:56:51.377Z,1014.04
2022-09-22T04:57:31.897Z,1014.05
2022-09-22T04:58:12.367Z,1014.04
2022-09-22T04:58:52.836Z,1014.04
2022-09-22T04:59:33.431Z,1014.03
2022-09-22T05:00:13.888Z,1014.03
2022-09-22T05:00:54.378Z,1014
2022-09-22T05:01:34.914Z,1014.03
2022-09-22T05:02:15.415Z,1014.06
2022-09-22T05:02:55.925Z,1014.09
2022-09-22T05:03:36.406Z,1014.09
2022-09-22T05:04:16.850Z,1014.07
2022-09-22T05:04:57.352Z,1014.08
2022-09-22T05:05:37.815Z,1014.08
2022-09-22T05:06:18.389Z,1014.07
2022-09-22T05:06:58.904Z,1014.1
2022-09-22T05:07:39.414Z,1014.08
2022-09-22T05:08:19.936Z,1014.11
2022-09-22T05:11:39.699Z,1014.07
2022-09-22T05:12:20.279Z,1014.07
2022-09-22T05:13:00.777Z,1014.11
2022-09-22T05:13:41.265Z,1014.08
2022-09-22T05:14:26.240Z,1014.08
2022-09-22T05:15:02.278Z,1014.07
2022-09-22T05:15:42.730Z,1014.09
2022-09-22T05:16:23.241Z,1014.11
2022-09-22T05:17:03.779Z,1014.08
2022-09-22T05:17:44.258Z,1014.08
2022-09-22T05:18:24.779Z,1014.07
2022-09-22T05:19:05.300Z,1014.08
2022-09-22T05:19:45.846Z,1014.09
2022-09-22T05:20:26.317Z,1014.08
2022-09-22T05:21:06.778Z,1014.11
2022-09-22T05:21:47.337Z,1014.11
2022-09-22T05:22:28.918Z,1014.1
2022-09-22T05:23:09.425Z,1014.12
2022-09-22T05:23:50.623Z,1014.11
2022-09-22T05:25:11.698Z,1014.14
2022-09-22T05:25:52.196Z,1014.11
2022-09-22T05:26:32.661Z,1014.14
2022-09-22T05:27:53.776Z,1014.18
2022-09-22T05:28:34.262Z,1014.14
2022-09-22T05:29:14.770Z,1014.16
2022-09-22T05:29:55.453Z,1014.18
2022-09-22T05:30:35.941Z,1014.18
2022-09-22T05:31:16.504Z,1014.17
2022-09-22T05:31:56.989Z,1014.16
2022-09-22T05:32:37.474Z,1014.25
2022-09-22T05:33:17.964Z,1014.18
2022-09-22T05:33:58.512Z,1014.16
2022-09-22T05:34:38.940Z,1014.2
2022-09-22T05:35:19.907Z,1014.2
2022-09-22T05:36:00.418Z,1014.18
2022-09-22T05:36:40.899Z,1014.15
2022-09-22T05:37:21.413Z,1014.16
2022-09-22T05:38:01.857Z,1014.17
2022-09-22T05:41:31.141Z,1014.2
2022-09-22T05:42:11.380Z,1014.19
2022-09-22T05:42:51.918Z,1014.19
2022-09-22T05:43:32.367Z,1014.19
2022-09-22T05:44:12.889Z,1014.17
2022-09-22T05:44:53.416Z,1014.16
2022-09-22T05:45:33.997Z,1014.16
2022-09-22T05:46:14.455Z,1014.21
2022-09-22T05:46:54.882Z,1014.2
2022-09-22T05:47:35.407Z,1014.23
2022-09-22T05:48:15.847Z,1014.26
2022-09-22T05:48:56.387Z,1014.28
2022-09-22T05:49:36.927Z,1014.24
2022-09-22T05:50:17.368Z,1014.23
2022-09-22T05:50:57.884Z,1014.26
2022-09-22T05:51:38.428Z,1014.25
2022-09-22T05:52:18.831Z,1014.25
2022-09-22T05:52:59.388Z,1014.26
2022-09-22T05:53:39.913Z,1014.23
2022-09-22T06:31:35.717Z,1014.3
2022-09-22T06:32:15.933Z,1014.32
2022-09-22T06:32:57.845Z,1014.33
2022-09-22T06:33:38.427Z,1014.29
2022-09-22T06:34:18.979Z,1014.34
2022-09-22T06:34:59.579Z,1014.33
2022-09-22T06:35:41.142Z,1014.33
2022-09-22T06:36:21.985Z,1014.36
2022-09-22T06:37:03.323Z,1014.35
2022-09-22T06:37:43.602Z,1014.36
2022-09-22T06:38:24.179Z,1014.36
2022-09-22T06:39:04.862Z,1014.34
2022-09-22T06:39:45.318Z,1014.42
2022-09-22T06:40:25.964Z,1014.36
2022-09-22T06:41:06.492Z,1014.42
2022-09-22T06:41:47.019Z,1014.39
2022-09-22T06:42:27.729Z,1014.38
2022-09-22T06:43:08.816Z,1014.41
2022-09-22T06:43:50.013Z,1014.42
2022-09-22T06:44:30.756Z,1014.42
2022-09-22T06:45:11.261Z,1014.39
2022-09-22T06:45:51.810Z,1014.39
2022-09-22T06:46:32.491Z,1014.41
2022-09-22T06:47:12.920Z,1014.47
2022-09-22T06:47:53.511Z,1014.43
2022-09-22T06:48:34.084Z,1014.45
2022-09-22T06:49:14.516Z,1014.42
2022-09-22T06:49:55.079Z,1014.39
2022-09-22T06:50:35.493Z,1014.39
2022-09-22T06:51:16.035Z,1014.4
2022-09-22T06:51:56.513Z,1014.39
2022-09-22T06:52:38.439Z,1014.38
2022-09-22T06:53:17.668Z,1014.39
2022-09-22T06:53:58.620Z,1014.41
2022-09-22T06:54:39.079Z,1014.38
2022-09-22T06:55:20.676Z,1014.37
2022-09-22T06:56:01.047Z,1014.4
2022-09-22T06:56:41.679Z,1014.41
2022-09-22T06:57:22.118Z,1014.38
2022-09-22T06:58:02.614Z,1014.4
2022-09-22T06:59:05.826Z,1014.41
2022-09-22T06:59:38.733Z,1014.39
2022-09-22T07:00:19.256Z,1014.4
2022-09-22T07:00:59.907Z,1014.39
2022-09-22T07:01:40.728Z,1014.43
2022-09-22T07:02:21.074Z,1014.41
2022-09-22T07:03:01.527Z,1014.43
2022-09-22T07:03:41.965Z,1014.43
2022-09-22T07:04:22.624Z,1014.39
2022-09-22T07:05:03.267Z,1014.39
2022-09-22T07:05:43.815Z,1014.43
2022-09-22T07:06:24.320Z,1014.41
2022-09-22T07:07:04.868Z,1014.41
2022-09-22T07:10:41.746Z,1014.41
2022-09-22T07:11:24.660Z,1014.39
2022-09-22T07:12:05.968Z,1014.4
2022-09-22T07:12:46.496Z,1014.4
2022-09-22T07:13:27.180Z,1014.38
2022-09-22T07:14:07.824Z,1014.42
2022-09-22T07:14:48.376Z,1014.45
2022-09-22T07:15:28.931Z,1014.4
2022-09-22T07:16:09.536Z,1014.45
2022-09-22T07:16:50.037Z,1014.42
2022-09-22T07:17:31.425Z,1014.47
2022-09-22T07:18:11.953Z,1014.46
2022-09-22T07:18:52.423Z,1014.48
2022-09-22T07:19:32.934Z,1014.46
2022-09-22T07:22:26.934Z,1014.41
2022-09-22T07:23:09.119Z,1014.39
2022-09-22T07:23:49.786Z,1014.43
2022-09-22T07:24:34.300Z,1014.36
2022-09-22T07:25:14.833Z,1014.4
2022-09-22T07:25:55.423Z,1014.46
2022-09-22T07:26:36.022Z,1014.4
2022-09-22T07:27:18.864Z,1014.41
2022-09-22T07:30:53.373Z,1014.41
2022-09-22T07:31:33.801Z,1014.42
2022-09-22T07:32:17.998Z,1014.43
2022-09-22T07:32:58.668Z,1014.39
2022-09-22T07:33:39.166Z,1014.42
2022-09-22T07:34:19.748Z,1014.39
2022-09-22T07:35:00.271Z,1014.37
2022-09-22T07:35:40.823Z,1014.4
2022-09-22T07:36:21.367Z,1014.42
2022-09-22T07:37:02.855Z,1014.43
2022-09-22T07:40:46.093Z,1014.43
2022-09-22T07:41:27.288Z,1014.43
2022-09-22T07:42:07.875Z,1014.43
2022-09-22T07:42:48.912Z,1014.45
2022-09-22T07:43:29.332Z,1014.36
2022-09-22T07:44:09.842Z,1014.35
2022-09-22T07:44:50.612Z,1014.34
2022-09-22T07:45:31.235Z,1014.37
2022-09-22T07:46:11.848Z,1014.38
2022-09-22T07:46:52.378Z,1014.36
2022-09-22T07:47:32.845Z,1014.39
2022-09-22T07:50:54.921Z,1014.38
2022-09-22T07:51:35.956Z,1014.4
2022-09-22T07:52:17.401Z,1014.4
2022-09-22T07:52:58.533Z,1014.36
2022-09-22T07:53:40.183Z,1014.36
2022-09-22T07:54:20.855Z,1014.35
2022-09-22T07:55:01.207Z,1014.37
2022-09-22T07:55:41.935Z,1014.36
2022-09-22T07:56:24.242Z,1014.3
2022-09-22T07:57:05.092Z,1014.33
2022-09-22T07:57:46.218Z,1014.31
2022-09-22T07:58:27.323Z,1014.33
2022-09-22T07:59:07.938Z,1014.33
2022-09-22T07:59:51.421Z,1014.35
2022-09-22T08:00:32.298Z,1014.35
2022-09-22T08:01:12.786Z,1014.36
2022-09-22T08:01:54.319Z,1014.32
2022-09-22T08:02:35.653Z,1014.4
2022-09-22T08:03:16.145Z,1014.33
2022-09-22T08:03:56.793Z,1014.38
2022-09-22T08:04:37.878Z,1014.37
2022-09-22T08:05:18.391Z,1014.34
2022-09-22T08:06:03.912Z,1014.35
2022-09-22T08:06:39.464Z,1014.38
2022-09-22T08:09:57.121Z,1014.37
2022-09-22T08:10:38.218Z,1014.33
2022-09-22T08:11:19.515Z,1014.28
2022-09-22T08:12:01.378Z,1014.27
2022-09-22T08:12:42.491Z,1014.28
2022-09-22T08:13:25.971Z,1014.27
2022-09-22T08:14:06.628Z,1014.3
2022-09-22T08:18:23.858Z,1014.27
2022-09-22T08:19:04.306Z,1014.24
2022-09-22T08:19:44.919Z,1014.26
2022-09-22T08:20:30.331Z,1014.31
2022-09-22T08:25:14.470Z,1014.3
2022-09-22T08:25:54.699Z,1014.28
2022-09-22T08:26:35.288Z,1014.33
2022-09-22T08:27:16.996Z,1014.33
2022-09-22T08:27:58.196Z,1014.31
2022-09-22T08:28:39.093Z,1014.31
2022-09-22T08:29:19.591Z,1014.3
2022-09-22T08:30:00.110Z,1014.35
2022-09-22T08:30:41.918Z,1014.32
2022-09-22T08:31:22.535Z,1014.33
2022-09-22T08:32:03.109Z,1014.31
2022-09-22T08:32:44.087Z,1014.34
2022-09-22T08:34:05.243Z,1014.34
2022-09-22T08:34:46.265Z,1014.3
2022-09-22T08:35:26.908Z,1014.33
2022-09-22T08:36:09.022Z,1014.33
2022-09-22T08:36:49.721Z,1014.3
2022-09-22T08:37:30.378Z,1014.28
2022-09-22T08:38:12.912Z,1014.33
2022-09-22T08:38:51.799Z,1014.31
2022-09-22T08:39:32.370Z,1014.33
2022-09-22T08:40:12.873Z,1014.33
2022-09-22T08:40:53.680Z,1014.34
2022-09-22T08:41:34.266Z,1014.33
2022-09-22T08:42:14.802Z,1014.32
2022-09-22T08:42:55.262Z,1014.32
2022-09-22T08:43:36.210Z,1014.34
2022-09-22T08:44:16.885Z,1014.32
2022-09-22T08:44:57.606Z,1014.29
2022-09-22T08:45:38.429Z,1014.31
2022-09-22T08:46:19.059Z,1014.27
2022-09-22T08:46:59.444Z,1014.3
2022-09-22T08:47:39.946Z,1014.26
2022-09-22T08:48:20.629Z,1014.29
2022-09-22T08:49:01.151Z,1014.32
2022-09-22T08:49:41.661Z,1014.27
2022-09-22T08:50:22.198Z,1014.32
2022-09-22T08:51:02.705Z,1014.28
2022-09-22T08:51:43.563Z,1014.27
2022-09-22T08:52:28.314Z,1014.27
2022-09-22T08:55:21.668Z,1014.28
2022-09-22T08:56:02.354Z,1014.29
2022-09-22T08:56:42.678Z,1014.32
2022-09-22T08:57:23.272Z,1014.35
2022-09-22T08:58:03.831Z,1014.3
2022-09-22T08:58:44.430Z,1014.27
2022-09-22T08:59:25.060Z,1014.27
2022-09-22T09:00:05.521Z,1014.32
2022-09-22T09:00:46.853Z,1014.29
2022-09-22T09:01:26.775Z,1014.32
2022-09-22T09:02:08.034Z,1014.33
2022-09-22T09:02:51.533Z,1014.31
2022-09-22T09:03:31.997Z,1014.31
2022-09-22T09:04:12.799Z,1014.32
2022-09-22T09:04:53.323Z,1014.31
2022-09-22T09:05:33.868Z,1014.35
2022-09-22T09:06:14.451Z,1014.32
2022-09-22T09:06:55.049Z,1014.31
2022-09-22T09:07:35.642Z,1014.32
2022-09-22T09:08:16.187Z,1014.32
2022-09-22T09:09:01.368Z,1014.32
2022-09-22T09:09:38.043Z,1014.32
2022-09-22T09:10:18.758Z,1014.32
2022-09-22T09:10:59.247Z,1014.35
2022-09-22T09:11:39.813Z,1014.37
2022-09-22T09:12:20.389Z,1014.33
2022-09-22T09:13:00.969Z,1014.31
2022-09-22T09:13:41.858Z,1014.42
2022-09-22T09:14:22.434Z,1014.35
2022-09-22T09:15:02.927Z,1014.36
2022-09-22T09:15:43.454Z,1014.38
2022-09-22T09:16:24.060Z,1014.34
2022-09-22T09:17:04.509Z,1014.34
2022-09-22T09:17:45.067Z,1014.33
2022-09-22T09:18:25.612Z,1014.33
2022-09-22T09:19:06.160Z,1014.33
2022-09-22T09:19:46.697Z,1014.3
2022-09-22T09:20:27.407Z,1014.33
2022-09-22T09:21:07.894Z,1014.28
2022-09-22T09:21:48.521Z,1014.26
2022-09-22T09:22:29.023Z,1014.33
2022-09-22T09:23:09.572Z,1014.3
2022-09-22T09:25:27.734Z,1014.27
2022-09-22T09:25:52.278Z,1014.31
2022-09-22T09:29:25.187Z,1014.32
2022-09-22T09:32:58.324Z,1014.28
2022-09-22T09:33:39.252Z,1014.28
2022-09-22T09:34:20.432Z,1014.25
2022-09-22T09:35:00.978Z,1014.23
2022-09-22T09:35:42.145Z,1014.25
2022-09-22T09:36:22.327Z,1014.27
2022-09-22T09:37:02.924Z,1014.23
2022-09-22T09:37:43.566Z,1014.22
2022-09-22T09:38:26.188Z,1014.18
2022-09-22T09:39:06.158Z,1014.18
2022-09-22T09:39:47.266Z,1014.19
2022-09-22T09:40:28.520Z,1014.19
2022-09-22T09:41:09.084Z,1014.19
2022-09-22T09:41:51.958Z,1014.15
2022-09-22T09:42:32.734Z,1014.16
2022-09-22T09:43:16.341Z,1014.17
2022-09-22T09:43:56.807Z,1014.16
2022-09-22T09:45:17.906Z,1014.14
2022-09-22T09:45:58.508Z,1014.11
2022-09-22T09:46:39.127Z,1014.09
2022-09-22T09:47:21.249Z,1014.08
2022-09-22T09:48:01.141Z,1014.06
2022-09-22T09:48:41.783Z,1014.06
2022-09-22T09:49:22.335Z,1014.01
2022-09-22T09:52:36.727Z,1013.98
2022-09-22T09:53:16.949Z,1013.93
2022-09-22T09:56:54.033Z,1013.91
2022-09-22T09:57:34.681Z,1013.93
2022-09-22T09:58:15.754Z,1013.95
2022-09-22T09:58:56.070Z,1013.89
2022-09-22T09:59:36.598Z,1013.91
2022-09-22T10:00:17.127Z,1013.88
2022-09-22T10:00:57.635Z,1013.88
2022-09-22T10:01:39.590Z,1013.86
2022-09-22T10:02:19.781Z,1013.79
2022-09-22T10:03:00.342Z,1013.86
2022-09-22T10:03:40.980Z,1013.82
2022-09-22T10:04:21.491Z,1013.78
2022-09-22T10:05:01.943Z,1013.79
2022-09-22T10:05:42.538Z,1013.82
2022-09-22T10:06:23.295Z,1013.76
2022-09-22T10:07:04.522Z,1013.77
2022-09-22T10:07:45.060Z,1013.8
2022-09-22T10:08:25.524Z,1013.8
2022-09-22T10:09:06.141Z,1013.79
2022-09-22T10:09:46.566Z,1013.79
2022-09-22T10:10:27.127Z,1013.76
2022-09-22T10:11:07.775Z,1013.79
2022-09-22T10:11:48.550Z,1013.78
2022-09-22T10:12:29.003Z,1013.78
2022-09-22T10:13:11.087Z,1013.79
2022-09-22T10:13:51.281Z,1013.76
2022-09-22T10:14:31.839Z,1013.77
2022-09-22T10:15:12.676Z,1013.81
2022-09-22T10:15:53.593Z,1013.8
2022-09-22T10:16:34.468Z,1013.76
2022-09-22T10:17:15.143Z,1013.84
2022-09-22T10:17:55.828Z,1013.8